Oakton, Kentucky
Current Conditions -  °F | °C
As of 12:55 AM on Monday 24 Nov 2014 (Local Time) from KUCY Reporting Station
Broken Clouds Broken Clouds  
Wind Chill: 61°   Ceiling: 2000
Heat Index: 61°   Visibility: 10mi
Dew Point: 57°   Wind: 12mph
Humidity: 88%   Direction: 200°SSW
Pressure: 29.34"   Gusts: NA
Location:  36.6807°N, 88.9572°W
Report Text: KUCY 240655Z AUTO 20010KT 10SM BKN020 16/14 A2934 RMK
Loading
Personal Weather Stations






























Interactive Weather Map New forecast layout! Learn more

10-Day Weather Forecast

Advertisements
Track Severe Weather on mobile